Time;durP1;ratioP1;P1;durP2;ratioP2;P2;SDS_P1;SDS_P2;PMS_P1;PMS_P2;Temp;Humidity;BMP_temperature;BMP_pressure;BME280_temperature;BME280_humidity;BME280_pressure;Samples;Min_cycle;Max_cycle;Signal;HPM_P1;HPM_P2
2023/06/27 05:50:09;;;;;;;8.30;3.03;;;;;;;;;;10658801;27;20404;-81
2023/06/27 05:55:10;;;;;;;11.55;4.28;;;;;;;;;;10624409;28;20019;-82
2023/06/27 06:00:13;;;;;;;8.90;3.42;;;;;;;;;;10624913;28;20027;-84
2023/06/27 06:05:14;;;;;;;9.68;3.20;;;;;;;;;;10632479;28;20023;-84
2023/06/27 06:10:21;;;;;;;11.02;3.50;;;;;;;;;;10632878;28;20042;-84
2023/06/27 06:15:22;;;;;;;8.05;3.30;;;;;;;;;;10633761;28;20027;-85
2023/06/27 06:20:23;;;;;;;11.48;4.90;;;;;;;;;;10624331;28;20058;-85
2023/06/27 06:25:24;;;;;;;6.90;2.97;;;;;;;;;;10634492;28;20020;-82
2023/06/27 06:30:25;;;;;;;12.93;3.65;;;;;;;;;;10652131;28;20057;-85
2023/06/27 06:35:26;;;;;;;9.55;3.63;;;;;;;;;;10632520;28;20074;-85
2023/06/27 06:40:29;;;;;;;11.73;5.70;;;;;;;;;;10636497;28;20019;-83
2023/06/27 06:45:30;;;;;;;10.45;4.43;;;;;;;;;;10635585;28;20027;-84
2023/06/27 06:50:32;;;;;;;15.20;5.40;;;;;;;;;;10638477;28;20023;-85
2023/06/27 06:55:33;;;;;;;11.38;3.90;;;;;;;;;;10638892;28;20027;-85
2023/06/27 07:00:34;;;;;;;7.35;3.95;;;;;;;;;;10617721;28;20401;-84
2023/06/27 07:05:41;;;;;;;5.97;2.70;;;;;;;;;;10618045;28;20035;-85
2023/06/27 07:10:50;;;;;;;6.70;2.95;;;;;;;;;;10605239;28;20393;-88
2023/06/27 07:15:53;;;;;;;7.13;2.67;;;;;;;;;;10609031;28;20019;-87
2023/06/27 07:21:00;;;;;;;6.35;2.83;;;;;;;;;;10612002;28;20019;-89
2023/06/27 07:31:40;;;;;;;7.82;4.38;;;;;;;;;;10671441;27;20027;-88
2023/06/27 07:36:44;;;;;;;8.95;4.90;;;;;;;;;;10668591;27;20023;-86
2023/06/27 07:41:45;;;;;;;10.02;4.32;;;;;;;;;;10631673;28;20029;-88
2023/06/27 07:46:46;;;;;;;8.25;4.38;;;;;;;;;;10632721;28;20039;-88
2023/06/27 07:51:51;;;;;;;9.38;4.10;;;;;;;;;;10628249;28;20024;-90
2023/06/27 07:56:54;;;;;;;7.97;4.20;;;;;;;;;;10604222;28;20084;-89
2023/06/27 08:01:55;;;;;;;8.77;4.07;;;;;;;;;;10593801;28;20420;-89
2023/06/27 08:06:59;;;;;;;8.02;4.05;;;;;;;;;;10591218;28;20111;-89
2023/06/27 08:12:03;;;;;;;8.35;3.88;;;;;;;;;;10590464;28;20034;-90
2023/06/27 08:17:09;;;;;;;7.72;3.65;;;;;;;;;;10595831;28;20057;-90
2023/06/27 08:22:24;;;;;;;7.70;3.40;;;;;;;;;;10595880;28;20062;-91
2023/06/27 09:45:24;;;;;;;6.32;3.20;;;;;;;;;;10615439;28;20092;-86
2023/06/27 10:02:37;;;;;;;4.63;2.40;;;;;;;;;;10483532;28;20021;-88
2023/06/27 10:24:44;;;;;;;;;;;;;;;;;;10503743;28;20021;-88
2023/06/27 10:30:35;;;;;;;3.92;1.98;;;;;;;;;;10497931;28;20340;-88
2023/06/27 11:09:23;;;;;;;4.60;2.47;;;;;;;;;;10564661;28;20048;-86
2023/06/27 11:14:34;;;;;;;4.80;2.70;;;;;;;;;;10595645;28;20024;-86
2023/06/27 11:20:12;;;;;;;5.85;2.90;;;;;;;;;;10591092;28;20126;-89
2023/06/27 11:37:00;;;;;;;5.82;2.30;;;;;;;;;;10591811;28;20110;-87
2023/06/27 11:42:01;;;;;;;6.15;2.80;;;;;;;;;;10546427;28;20073;-87
2023/06/27 11:52:49;;;;;;;4.65;2.63;;;;;;;;;;10592845;28;20020;-87
2023/06/27 11:58:11;;;;;;;4.25;2.92;;;;;;;;;;10591231;28;20028;-87
2023/06/27 12:03:12;;;;;;;7.13;3.67;;;;;;;;;;10620345;22;20101;-78
2023/06/27 12:08:15;;;;;;;5.18;2.60;;;;;;;;;;10635851;27;20039;-77
2023/06/27 12:13:16;;;;;;;4.75;2.50;;;;;;;;;;10634016;27;20023;-78
2023/06/27 12:18:30;;;;;;;4.55;2.03;;;;;;;;;;10634194;27;20035;-78
2023/06/27 12:23:31;;;;;;;4.47;1.73;;;;;;;;;;10612765;27;20049;-78
2023/06/27 12:28:32;;;;;;;3.78;2.85;;;;;;;;;;10614828;27;20035;-78
2023/06/27 12:33:33;;;;;;;4.28;2.28;;;;;;;;;;10614308;27;20056;-78
2023/06/27 12:38:34;;;;;;;5.38;2.45;;;;;;;;;;10616123;27;20503;-80
2023/06/27 12:43:35;;;;;;;5.20;2.88;;;;;;;;;;10616604;27;20118;-80
2023/06/27 12:48:36;;;;;;;5.45;3.15;;;;;;;;;;10622477;27;20035;-79
2023/06/27 12:53:37;;;;;;;4.93;2.10;;;;;;;;;;10621738;27;20442;-79
2023/06/27 12:58:39;;;;;;;4.57;2.17;;;;;;;;;;10617265;27;20031;-80
2023/06/27 13:03:40;;;;;;;6.07;3.50;;;;;;;;;;10621613;27;20035;-80
2023/06/27 13:08:41;;;;;;;3.38;1.75;;;;;;;;;;10617779;27;20431;-80
2023/06/27 13:13:42;;;;;;;4.22;1.38;;;;;;;;;;10625116;27;20065;-79
2023/06/27 13:18:47;;;;;;;3.63;1.63;;;;;;;;;;10624118;27;20038;-80
2023/06/27 13:23:48;;;;;;;2.60;1.45;;;;;;;;;;10624160;27;20076;-78
2023/06/27 13:28:49;;;;;;;3.58;1.50;;;;;;;;;;10623504;27;20027;-79
2023/06/27 13:33:51;;;;;;;3.25;1.58;;;;;;;;;;10637751;27;20035;-80
2023/06/27 13:38:52;;;;;;;2.17;1.40;;;;;;;;;;10623949;27;20096;-79
2023/06/27 13:43:53;;;;;;;3.15;1.48;;;;;;;;;;10629440;27;20043;-78
2023/06/27 13:48:55;;;;;;;2.95;1.90;;;;;;;;;;10621285;28;20118;-78
2023/06/27 13:53:56;;;;;;;1.88;1.10;;;;;;;;;;10647349;28;20087;-79
2023/06/27 13:58:58;;;;;;;1.92;1.20;;;;;;;;;;10636811;28;20035;-79
2023/06/27 14:04:00;;;;;;;2.80;1.30;;;;;;;;;;10634941;28;20154;-80
2023/06/27 14:09:01;;;;;;;2.17;1.30;;;;;;;;;;10635302;27;20034;-80
2023/06/27 14:14:04;;;;;;;4.70;1.60;;;;;;;;;;10636888;27;20488;-81
2023/06/27 14:19:06;;;;;;;2.20;1.02;;;;;;;;;;10645453;27;20076;-82
2023/06/27 14:24:07;;;;;;;3.17;1.25;;;;;;;;;;10643315;27;20027;-82
2023/06/27 14:29:11;;;;;;;2.05;1.33;;;;;;;;;;10639278;27;20047;-82
2023/06/27 14:34:15;;;;;;;2.40;1.40;;;;;;;;;;10665907;27;20035;-79
2023/06/27 14:39:17;;;;;;;2.10;1.10;;;;;;;;;;10658982;27;20066;-81
2023/06/27 14:44:18;;;;;;;3.72;0.93;;;;;;;;;;10624772;27;20393;-81
2023/06/27 14:49:21;;;;;;;1.77;0.98;;;;;;;;;;10623119;27;20031;-80
2023/06/27 14:54:22;;;;;;;2.03;1.10;;;;;;;;;;10627620;27;20027;-81
2023/06/27 14:59:26;;;;;;;3.10;1.10;;;;;;;;;;10627785;27;20427;-82
2023/06/27 15:04:27;;;;;;;5.43;2.75;;;;;;;;;;10628214;27;20039;-81
2023/06/27 15:09:28;;;;;;;3.58;1.10;;;;;;;;;;10629301;27;20471;-82
2023/06/27 15:14:29;;;;;;;2.55;1.17;;;;;;;;;;10629247;27;20031;-80
2023/06/27 15:19:30;;;;;;;4.40;1.10;;;;;;;;;;10629199;27;20038;-80
2023/06/27 15:24:31;;;;;;;1.92;1.13;;;;;;;;;;10631749;27;20049;-80
2023/06/27 15:29:32;;;;;;;3.42;1.13;;;;;;;;;;10633775;27;20088;-80
2023/06/27 15:34:34;;;;;;;3.33;2.20;;;;;;;;;;10636087;27;20043;-80
2023/06/27 15:39:36;;;;;;;5.07;2.63;;;;;;;;;;10637539;27;20048;-80
2023/06/27 15:44:38;;;;;;;2.08;1.50;;;;;;;;;;10633864;27;20046;-81
2023/06/27 15:49:39;;;;;;;3.85;2.22;;;;;;;;;;10629326;27;20035;-79
2023/06/27 15:54:40;;;;;;;4.13;2.13;;;;;;;;;;10627044;27;20057;-81
2023/06/27 15:59:41;;;;;;;4.53;1.48;;;;;;;;;;10643160;27;20031;-81
2023/06/27 16:04:42;;;;;;;4.32;2.78;;;;;;;;;;10626986;27;20042;-80
2023/06/27 16:09:44;;;;;;;3.58;2.33;;;;;;;;;;10627328;27;20027;-81
2023/06/27 16:14:45;;;;;;;4.63;1.65;;;;;;;;;;10645860;27;20027;-80
2023/06/27 16:19:46;;;;;;;3.28;1.35;;;;;;;;;;10624407;27;20115;-79
2023/06/27 16:24:47;;;;;;;4.45;1.70;;;;;;;;;;10623907;27;20031;-80
2023/06/27 16:29:49;;;;;;;3.38;1.40;;;;;;;;;;10637170;27;20035;-79
2023/06/27 16:34:50;;;;;;;3.40;1.25;;;;;;;;;;10615210;27;20031;-81
2023/06/27 16:39:51;;;;;;;3.55;1.50;;;;;;;;;;10615818;27;20033;-79
2023/06/27 16:44:52;;;;;;;4.45;1.30;;;;;;;;;;10616455;27;20059;-79
2023/06/27 16:49:53;;;;;;;4.57;1.25;;;;;;;;;;10615634;27;20057;-79
2023/06/27 16:54:54;;;;;;;6.07;2.28;;;;;;;;;;10616893;27;20447;-80
2023/06/27 16:59:55;;;;;;;3.08;1.20;;;;;;;;;;10614813;27;20099;-79
2023/06/27 17:04:56;;;;;;;3.97;1.52;;;;;;;;;;10614797;27;20400;-79
2023/06/27 17:09:57;;;;;;;7.78;1.30;;;;;;;;;;10633763;27;20092;-80
2023/06/27 17:14:58;;;;;;;3.47;0.90;;;;;;;;;;10616525;27;20039;-80
2023/06/27 17:19:59;;;;;;;4.00;1.50;;;;;;;;;;10628377;27;20073;-79
2023/06/27 17:25:00;;;;;;;3.35;1.30;;;;;;;;;;10639841;27;20023;-79
2023/06/27 17:30:01;;;;;;;6.55;1.40;;;;;;;;;;10653831;27;20448;-79
2023/06/27 17:35:03;;;;;;;3.03;1.00;;;;;;;;;;10632361;27;20483;-80
2023/06/27 17:40:04;;;;;;;2.70;1.30;;;;;;;;;;10614339;27;20066;-79
2023/06/27 17:45:06;;;;;;;3.42;1.20;;;;;;;;;;10613846;27;20042;-79
2023/06/27 17:50:12;;;;;;;4.30;1.20;;;;;;;;;;10629328;28;20074;-78
2023/06/27 17:55:13;;;;;;;3.08;1.13;;;;;;;;;;10612876;28;20035;-78
2023/06/27 18:00:14;;;;;;;5.80;1.30;;;;;;;;;;10651184;22;20116;-82
2023/06/27 18:05:16;;;;;;;2.70;1.30;;;;;;;;;;10614935;28;20027;-82
2023/06/27 18:10:18;;;;;;;3.03;1.20;;;;;;;;;;10613896;28;20043;-82
2023/06/27 18:15:23;;;;;;;3.55;1.65;;;;;;;;;;10613108;28;20028;-82
2023/06/27 18:20:29;;;;;;;3.70;1.35;;;;;;;;;;10613557;28;20095;-81
2023/06/27 18:25:30;;;;;;;3.65;1.50;;;;;;;;;;10611291;28;20036;-82
2023/06/27 18:30:31;;;;;;;2.83;1.27;;;;;;;;;;10611047;28;20071;-81
2023/06/27 18:35:35;;;;;;;2.78;1.30;;;;;;;;;;10606722;28;20059;-82
2023/06/27 18:40:36;;;;;;;3.47;1.60;;;;;;;;;;10609366;28;20042;-82
2023/06/27 18:45:38;;;;;;;3.72;1.52;;;;;;;;;;10608645;28;20035;-82
2023/06/27 18:50:39;;;;;;;6.63;1.60;;;;;;;;;;10606270;28;20054;-82
2023/06/27 18:55:40;;;;;;;5.88;1.88;;;;;;;;;;10610405;28;20043;-83
2023/06/27 19:00:41;;;;;;;3.85;1.30;;;;;;;;;;10621272;28;20070;-82
2023/06/27 19:05:42;;;;;;;3.53;1.40;;;;;;;;;;10611622;28;20039;-82
2023/06/27 19:10:43;;;;;;;4.30;1.73;;;;;;;;;;10618151;28;20381;-82
